sensor_id;sensor_type;location;lat;lon;timestamp;pressure;altitude;pressure_sealevel;temperature;humidity
76156;BME280;64906;51.290;7.348;2023-12-07T00:01:03;98921.59;;;18.51;39.09
76156;BME280;64906;51.290;7.348;2023-12-07T00:03:28;98924.59;;;18.49;39.16
76156;BME280;64906;51.290;7.348;2023-12-07T00:05:53;98928.69;;;18.47;39.02
76156;BME280;64906;51.290;7.348;2023-12-07T00:08:19;98926.25;;;18.45;39.19
76156;BME280;64906;51.290;7.348;2023-12-07T00:10:44;98927.34;;;18.49;39.32
76156;BME280;64906;51.290;7.348;2023-12-07T00:13:09;98930.31;;;18.48;39.14
76156;BME280;64906;51.290;7.348;2023-12-07T00:15:35;98932.25;;;18.42;39.22
76156;BME280;64906;51.290;7.348;2023-12-07T00:18:00;98936.34;;;18.45;39.21
76156;BME280;64906;51.290;7.348;2023-12-07T00:20:26;98935.00;;;18.47;39.37
76156;BME280;64906;51.290;7.348;2023-12-07T00:22:51;98931.97;;;18.44;39.34
76156;BME280;64906;51.290;7.348;2023-12-07T00:25:16;98934.16;;;18.42;39.31
76156;BME280;64906;51.290;7.348;2023-12-07T00:27:41;98931.44;;;18.47;39.34
76156;BME280;64906;51.290;7.348;2023-12-07T00:30:07;98935.28;;;18.41;39.39
76156;BME280;64906;51.290;7.348;2023-12-07T00:32:34;98931.13;;;18.38;39.41
76156;BME280;64906;51.290;7.348;2023-12-07T00:34:59;98928.69;;;18.47;39.14
76156;BME280;64906;51.290;7.348;2023-12-07T00:37:24;98921.06;;;18.44;39.39
76156;BME280;64906;51.290;7.348;2023-12-07T00:39:50;98919.16;;;18.44;39.29
76156;BME280;64906;51.290;7.348;2023-12-07T00:42:15;98924.34;;;18.46;39.24
76156;BME280;64906;51.290;7.348;2023-12-07T00:44:41;98928.13;;;18.45;39.23
76156;BME280;64906;51.290;7.348;2023-12-07T00:47:06;98935.53;;;18.44;39.38
76156;BME280;64906;51.290;7.348;2023-12-07T00:49:31;98941.00;;;18.44;39.10
76156;BME280;64906;51.290;7.348;2023-12-07T00:51:57;98940.19;;;18.44;39.09
76156;BME280;64906;51.290;7.348;2023-12-07T00:54:22;98934.44;;;18.45;39.27
76156;BME280;64906;51.290;7.348;2023-12-07T00:56:47;98932.00;;;18.39;39.37
76156;BME280;64906;51.290;7.348;2023-12-07T00:59:12;98928.97;;;18.40;38.96
76156;BME280;64906;51.290;7.348;2023-12-07T01:01:38;98938.28;;;18.39;39.25
76156;BME280;64906;51.290;7.348;2023-12-07T01:04:04;98933.34;;;18.41;39.04
76156;BME280;64906;51.290;7.348;2023-12-07T01:06:30;98933.06;;;18.38;39.17
76156;BME280;64906;51.290;7.348;2023-12-07T01:08:55;98944.53;;;18.35;39.22
76156;BME280;64906;51.290;7.348;2023-12-07T01:11:21;98941.53;;;18.36;39.17
76156;BME280;64906;51.290;7.348;2023-12-07T01:13:46;98941.25;;;18.33;39.39
76156;BME280;64906;51.290;7.348;2023-12-07T01:16:11;98952.19;;;18.33;39.14
76156;BME280;64906;51.290;7.348;2023-12-07T01:18:37;98942.34;;;18.32;39.27
76156;BME280;64906;51.290;7.348;2023-12-07T01:21:02;98939.59;;;18.32;39.34
76156;BME280;64906;51.290;7.348;2023-12-07T01:23:28;98942.34;;;18.32;39.32
76156;BME280;64906;51.290;7.348;2023-12-07T01:25:53;98945.63;;;18.34;39.34
76156;BME280;64906;51.290;7.348;2023-12-07T01:28:19;98951.63;;;18.36;39.42
76156;BME280;64906;51.290;7.348;2023-12-07T01:30:44;98943.72;;;18.34;39.22
76156;BME280;64906;51.290;7.348;2023-12-07T01:33:09;98949.19;;;18.29;39.17
76156;BME280;64906;51.290;7.348;2023-12-07T01:35:34;98955.22;;;18.26;39.30
76156;BME280;64906;51.290;7.348;2023-12-07T01:38:00;98953.28;;;18.27;39.30
76156;BME280;64906;51.290;7.348;2023-12-07T01:40:25;98951.91;;;18.24;39.16
76156;BME280;64906;51.290;7.348;2023-12-07T01:42:53;98953.28;;;18.27;39.32
76156;BME280;64906;51.290;7.348;2023-12-07T01:45:19;98948.91;;;18.31;39.45
76156;BME280;64906;51.290;7.348;2023-12-07T01:47:46;98955.72;;;18.33;39.51
76156;BME280;64906;51.290;7.348;2023-12-07T01:50:12;98961.19;;;18.28;39.23
76156;BME280;64906;51.290;7.348;2023-12-07T01:52:45;98955.47;;;18.25;39.26
76156;BME280;64906;51.290;7.348;2023-12-07T01:55:13;98959.84;;;18.26;39.30
76156;BME280;64906;51.290;7.348;2023-12-07T01:57:40;98963.69;;;18.20;39.48
76156;BME280;64906;51.290;7.348;2023-12-07T02:00:07;98961.47;;;18.22;39.36
76156;BME280;64906;51.290;7.348;2023-12-07T02:02:34;98954.94;;;18.23;39.28
76156;BME280;64906;51.290;7.348;2023-12-07T02:05:00;98954.94;;;18.23;39.25
76156;BME280;64906;51.290;7.348;2023-12-07T02:07:27;98966.66;;;18.23;39.34
76156;BME280;64906;51.290;7.348;2023-12-07T02:09:53;98965.84;;;18.23;39.37
76156;BME280;64906;51.290;7.348;2023-12-07T02:12:19;98960.41;;;18.23;39.25
76156;BME280;64906;51.290;7.348;2023-12-07T02:14:44;98961.19;;;18.23;39.28
76156;BME280;64906;51.290;7.348;2023-12-07T02:17:21;98951.38;;;18.22;39.36
76156;BME280;64906;51.290;7.348;2023-12-07T02:19:57;98958.72;;;18.22;39.46
76156;BME280;64906;51.290;7.348;2023-12-07T02:22:32;98963.91;;;18.23;39.37
76156;BME280;64906;51.290;7.348;2023-12-07T02:25:15;98966.41;;;18.25;39.26
76156;BME280;64906;51.290;7.348;2023-12-07T02:27:44;98976.78;;;18.23;39.25
76156;BME280;64906;51.290;7.348;2023-12-07T02:30:13;98978.41;;;18.24;39.32
76156;BME280;64906;51.290;7.348;2023-12-07T02:32:40;98979.53;;;18.23;39.51
76156;BME280;64906;51.290;7.348;2023-12-07T02:35:07;98984.72;;;18.24;39.50
76156;BME280;64906;51.290;7.348;2023-12-07T02:37:41;98980.31;;;18.23;39.24
76156;BME280;64906;51.290;7.348;2023-12-07T02:40:07;98986.63;;;18.24;39.38
76156;BME280;64906;51.290;7.348;2023-12-07T02:42:37;98982.25;;;18.23;39.34
76156;BME280;64906;51.290;7.348;2023-12-07T02:45:04;98988.78;;;18.22;39.47
76156;BME280;64906;51.290;7.348;2023-12-07T02:47:30;98986.06;;;18.22;39.31
76156;BME280;64906;51.290;7.348;2023-12-07T02:49:55;98980.59;;;18.22;39.38
76156;BME280;64906;51.290;7.348;2023-12-07T02:52:20;98986.88;;;18.22;39.23
76156;BME280;64906;51.290;7.348;2023-12-07T02:54:46;98997.53;;;18.24;39.52
76156;BME280;64906;51.290;7.348;2023-12-07T02:57:11;98984.44;;;18.21;39.22
76156;BME280;64906;51.290;7.348;2023-12-07T02:59:36;98991.81;;;18.20;39.39
76156;BME280;64906;51.290;7.348;2023-12-07T03:02:02;98992.63;;;18.21;39.50
76156;BME280;64906;51.290;7.348;2023-12-07T03:04:27;98990.72;;;18.21;39.23
76156;BME280;64906;51.290;7.348;2023-12-07T03:06:52;98985.53;;;18.20;39.28
76156;BME280;64906;51.290;7.348;2023-12-07T03:09:18;98987.16;;;18.21;39.19
76156;BME280;64906;51.290;7.348;2023-12-07T03:11:43;98977.63;;;18.18;39.44
76156;BME280;64906;51.290;7.348;2023-12-07T03:14:08;98970.22;;;18.19;39.17
76156;BME280;64906;51.290;7.348;2023-12-07T03:16:33;98974.06;;;18.18;39.61
76156;BME280;64906;51.290;7.348;2023-12-07T03:19:01;98969.66;;;18.17;39.50
76156;BME280;64906;51.290;7.348;2023-12-07T03:21:26;98968.03;;;18.16;39.41
76156;BME280;64906;51.290;7.348;2023-12-07T03:23:51;98966.94;;;18.17;39.23
76156;BME280;64906;51.290;7.348;2023-12-07T03:26:17;98977.63;;;18.18;39.26
76156;BME280;64906;51.290;7.348;2023-12-07T03:28:42;98974.88;;;18.13;39.39
76156;BME280;64906;51.290;7.348;2023-12-07T03:31:07;98973.78;;;18.14;39.22
76156;BME280;64906;51.290;7.348;2023-12-07T03:33:32;98970.47;;;18.12;39.53
76156;BME280;64906;51.290;7.348;2023-12-07T03:35:58;98976.78;;;18.13;39.11
76156;BME280;64906;51.290;7.348;2023-12-07T03:38:23;98970.22;;;18.09;39.56
76156;BME280;64906;51.290;7.348;2023-12-07T03:40:48;98966.13;;;18.06;39.62
76156;BME280;64906;51.290;7.348;2023-12-07T03:43:15;98974.06;;;18.13;39.25
76156;BME280;64906;51.290;7.348;2023-12-07T03:45:40;98972.94;;;18.14;39.27
76156;BME280;64906;51.290;7.348;2023-12-07T03:48:06;98967.47;;;18.14;39.44
76156;BME280;64906;51.290;7.348;2023-12-07T03:50:31;98973.78;;;18.14;39.31
76156;BME280;64906;51.290;7.348;2023-12-07T03:52:56;98977.59;;;18.13;39.64
76156;BME280;64906;51.290;7.348;2023-12-07T03:55:21;98968.31;;;18.09;39.34
76156;BME280;64906;51.290;7.348;2023-12-07T03:57:47;98979.78;;;18.11;39.23
76156;BME280;64906;51.290;7.348;2023-12-07T04:00:12;98975.41;;;18.10;39.43
76156;BME280;64906;51.290;7.348;2023-12-07T04:02:38;98978.13;;;18.10;39.18
76156;BME280;64906;51.290;7.348;2023-12-07T04:05:03;98980.06;;;18.10;39.13
76156;BME280;64906;51.290;7.348;2023-12-07T04:07:29;98978.13;;;18.10;39.47
76156;BME280;64906;51.290;7.348;2023-12-07T04:09:57;98971.88;;;18.10;39.42
76156;BME280;64906;51.290;7.348;2023-12-07T04:12:22;98969.94;;;18.10;39.17
76156;BME280;64906;51.290;7.348;2023-12-07T04:14:48;98979.50;;;18.08;39.36
76156;BME280;64906;51.290;7.348;2023-12-07T04:17:13;98977.59;;;18.08;39.00
76156;BME280;64906;51.290;7.348;2023-12-07T04:19:38;98985.25;;;18.06;39.36
76156;BME280;64906;51.290;7.348;2023-12-07T04:22:04;98984.97;;;18.08;39.46
76156;BME280;64906;51.290;7.348;2023-12-07T04:24:29;98986.59;;;18.09;38.96
76156;BME280;64906;51.290;7.348;2023-12-07T04:26:54;98987.16;;;18.06;39.47
76156;BME280;64906;51.290;7.348;2023-12-07T04:29:20;98986.88;;;18.07;39.22
76156;BME280;64906;51.290;7.348;2023-12-07T04:31:45;98986.88;;;18.07;39.46
76156;BME280;64906;51.290;7.348;2023-12-07T04:34:10;98994.78;;;18.09;39.41
76156;BME280;64906;51.290;7.348;2023-12-07T04:36:35;98992.91;;;18.09;39.43
76156;BME280;64906;51.290;7.348;2023-12-07T04:39:01;98997.81;;;18.07;39.58
76156;BME280;64906;51.290;7.348;2023-12-07T04:41:26;98998.91;;;18.06;39.35
76156;BME280;64906;51.290;7.348;2023-12-07T04:43:52;99004.09;;;18.08;39.26
76156;BME280;64906;51.290;7.348;2023-12-07T04:46:17;99002.47;;;18.07;39.62
76156;BME280;64906;51.290;7.348;2023-12-07T04:48:42;98989.09;;;18.05;39.62
76156;BME280;64906;51.290;7.348;2023-12-07T04:51:07;98997.00;;;18.07;39.38
76156;BME280;64906;51.290;7.348;2023-12-07T04:53:33;99001.38;;;18.08;39.66
76156;BME280;64906;51.290;7.348;2023-12-07T04:55:58;99001.63;;;18.06;39.54
76156;BME280;64906;51.290;7.348;2023-12-07T04:58:23;98992.59;;;18.06;39.53
76156;BME280;64906;51.290;7.348;2023-12-07T05:00:49;98995.91;;;18.08;39.51
76156;BME280;64906;51.290;7.348;2023-12-07T05:03:14;99000.53;;;18.07;39.37
76156;BME280;64906;51.290;7.348;2023-12-07T05:05:39;98997.53;;;18.09;39.41
76156;BME280;64906;51.290;7.348;2023-12-07T05:08:04;98987.41;;;18.04;39.34
76156;BME280;64906;51.290;7.348;2023-12-07T05:10:30;98994.25;;;18.02;39.60
76156;BME280;64906;51.290;7.348;2023-12-07T05:12:55;98992.88;;;17.99;39.53
76156;BME280;64906;51.290;7.348;2023-12-07T05:15:22;98998.59;;;17.93;39.85
76156;BME280;64906;51.290;7.348;2023-12-07T05:17:47;98996.97;;;17.92;39.74
76156;BME280;64906;51.290;7.348;2023-12-07T05:20:12;98999.16;;;17.90;39.64
76156;BME280;64906;51.290;7.348;2023-12-07T05:22:38;99005.44;;;17.95;39.49
76156;BME280;64906;51.290;7.348;2023-12-07T05:25:03;99012.28;;;17.98;39.54
76156;BME280;64906;51.290;7.348;2023-12-07T05:27:30;99001.34;;;17.98;39.76
76156;BME280;64906;51.290;7.348;2023-12-07T05:29:55;99005.19;;;17.97;39.69
76156;BME280;64906;51.290;7.348;2023-12-07T05:32:20;99010.09;;;17.95;39.42
76156;BME280;64906;51.290;7.348;2023-12-07T05:34:45;99004.63;;;17.90;39.75
76156;BME280;64906;51.290;7.348;2023-12-07T05:37:11;99008.69;;;17.92;39.84
76156;BME280;64906;51.290;7.348;2023-12-07T05:39:36;99007.91;;;17.92;39.79
76156;BME280;64906;51.290;7.348;2023-12-07T05:42:01;99006.25;;;17.91;39.82
76156;BME280;64906;51.290;7.348;2023-12-07T05:44:29;99007.91;;;17.92;39.88
76156;BME280;64906;51.290;7.348;2023-12-07T05:46:55;99013.66;;;17.95;39.75
76156;BME280;64906;51.290;7.348;2023-12-07T05:49:20;99010.34;;;17.93;39.98
76156;BME280;64906;51.290;7.348;2023-12-07T05:51:47;99013.09;;;17.98;39.79
76156;BME280;64906;51.290;7.348;2023-12-07T05:54:12;99013.09;;;17.98;39.81
76156;BME280;64906;51.290;7.348;2023-12-07T05:56:38;99012.81;;;18.00;39.73
76156;BME280;64906;51.290;7.348;2023-12-07T05:59:03;99010.09;;;18.00;39.78
76156;BME280;64906;51.290;7.348;2023-12-07T06:01:28;99011.19;;;17.99;40.05
76156;BME280;64906;51.290;7.348;2023-12-07T06:03:54;99013.09;;;17.98;39.89
76156;BME280;64906;51.290;7.348;2023-12-07T06:06:19;99014.44;;;18.01;40.01
76156;BME280;64906;51.290;7.348;2023-12-07T06:08:46;99007.38;;;18.00;39.93
76156;BME280;64906;51.290;7.348;2023-12-07T06:11:11;99007.38;;;18.00;39.88
76156;BME280;64906;51.290;7.348;2023-12-07T06:13:37;99003.53;;;18.01;39.91
76156;BME280;64906;51.290;7.348;2023-12-07T06:16:03;99000.81;;;18.01;39.98
76156;BME280;64906;51.290;7.348;2023-12-07T06:18:28;99002.72;;;18.00;39.97
76156;BME280;64906;51.290;7.348;2023-12-07T06:20:53;99005.47;;;18.00;40.20
76156;BME280;64906;51.290;7.348;2023-12-07T06:23:19;99003.53;;;18.01;39.98
76156;BME280;64906;51.290;7.348;2023-12-07T06:25:45;99004.34;;;18.01;40.12
76156;BME280;64906;51.290;7.348;2023-12-07T06:28:10;99009.00;;;18.01;40.10
76156;BME280;64906;51.290;7.348;2023-12-07T06:30:35;99007.09;;;18.01;40.04
76156;BME280;64906;51.290;7.348;2023-12-07T06:33:01;99007.09;;;18.01;40.07
76156;BME280;64906;51.290;7.348;2023-12-07T06:35:26;99014.19;;;18.02;40.01
76156;BME280;64906;51.290;7.348;2023-12-07T06:37:51;99003.81;;;18.04;40.07
76156;BME280;64906;51.290;7.348;2023-12-07T06:40:16;99005.47;;;18.00;40.36
76156;BME280;64906;51.290;7.348;2023-12-07T06:42:42;99003.25;;;18.02;40.32
76156;BME280;64906;51.290;7.348;2023-12-07T06:45:08;98998.06;;;18.06;40.21
76156;BME280;64906;51.290;7.348;2023-12-07T06:47:39;98992.59;;;18.06;40.02
76156;BME280;64906;51.290;7.348;2023-12-07T06:50:05;98988.81;;;18.07;40.28
76156;BME280;64906;51.290;7.348;2023-12-07T06:52:33;98992.59;;;18.06;40.03
76156;BME280;64906;51.290;7.348;2023-12-07T06:54:59;98984.97;;;18.08;40.36
76156;BME280;64906;51.290;7.348;2023-12-07T06:57:24;98991.81;;;18.05;40.17
76156;BME280;64906;51.290;7.348;2023-12-07T06:59:49;98986.88;;;18.02;40.30
76156;BME280;64906;51.290;7.348;2023-12-07T07:02:14;98991.81;;;18.05;40.34
76156;BME280;64906;51.290;7.348;2023-12-07T07:04:40;98986.34;;;18.05;40.25
76156;BME280;64906;51.290;7.348;2023-12-07T07:07:05;98985.53;;;18.05;40.46
76156;BME280;64906;51.290;7.348;2023-12-07T07:09:30;98985.78;;;18.03;40.64
76156;BME280;64906;51.290;7.348;2023-12-07T07:11:56;98981.69;;;18.01;40.39
76156;BME280;64906;51.290;7.348;2023-12-07T07:14:21;98987.69;;;18.03;40.36
76156;BME280;64906;51.290;7.348;2023-12-07T07:16:46;98985.78;;;18.03;40.50
76156;BME280;64906;51.290;7.348;2023-12-07T07:19:13;98989.31;;;18.04;40.50
76156;BME280;64906;51.290;7.348;2023-12-07T07:21:38;98979.78;;;18.06;40.38
76156;BME280;64906;51.290;7.348;2023-12-07T07:24:04;98985.53;;;18.05;40.47
76156;BME280;64906;51.290;7.348;2023-12-07T07:26:29;98995.34;;;18.06;40.57
76156;BME280;64906;51.290;7.348;2023-12-07T07:28:54;98995.06;;;18.07;40.37
76156;BME280;64906;51.290;7.348;2023-12-07T07:31:20;98978.69;;;18.07;40.40
76156;BME280;64906;51.290;7.348;2023-12-07T07:33:45;98989.31;;;18.09;40.71
76156;BME280;64906;51.290;7.348;2023-12-07T07:36:14;98988.25;;;18.10;40.59
76156;BME280;64906;51.290;7.348;2023-12-07T07:38:40;98986.31;;;18.10;40.50
76156;BME280;64906;51.290;7.348;2023-12-07T07:41:05;98989.06;;;18.10;40.52
76156;BME280;64906;51.290;7.348;2023-12-07T07:43:31;98992.34;;;18.12;40.67
76156;BME280;64906;51.290;7.348;2023-12-07T07:45:56;98984.97;;;18.08;40.71
76156;BME280;64906;51.290;7.348;2023-12-07T07:48:21;98991.28;;;18.13;40.74
76156;BME280;64906;51.290;7.348;2023-12-07T07:50:47;98996.47;;;18.15;40.75
76156;BME280;64906;51.290;7.348;2023-12-07T07:53:12;98991.28;;;18.13;40.53
76156;BME280;64906;51.290;7.348;2023-12-07T07:55:38;98998.09;;;18.16;40.70
76156;BME280;64906;51.290;7.348;2023-12-07T07:58:03;98985.25;;;18.16;40.53
76156;BME280;64906;51.290;7.348;2023-12-07T08:00:28;98988.78;;;18.17;41.01
76156;BME280;64906;51.290;7.348;2023-12-07T08:02:53;98990.44;;;18.18;40.76
76156;BME280;64906;51.290;7.348;2023-12-07T08:05:19;98992.91;;;18.19;40.85
76156;BME280;64906;51.290;7.348;2023-12-07T08:07:44;98989.91;;;18.21;40.63
76156;BME280;64906;51.290;7.348;2023-12-07T08:10:09;98989.06;;;18.20;40.64
76156;BME280;64906;51.290;7.348;2023-12-07T08:12:35;98984.16;;;18.22;40.62
76156;BME280;64906;51.290;7.348;2023-12-07T08:15:01;98984.16;;;18.22;40.81
76156;BME280;64906;51.290;7.348;2023-12-07T08:17:26;98985.53;;;18.25;40.74
76156;BME280;64906;51.290;7.348;2023-12-07T08:19:52;98974.59;;;18.25;40.92
76156;BME280;64906;51.290;7.348;2023-12-07T08:22:17;98980.06;;;18.25;40.81
76156;BME280;64906;51.290;7.348;2023-12-07T08:24:43;98977.06;;;18.26;40.66
76156;BME280;64906;51.290;7.348;2023-12-07T08:27:08;98973.22;;;18.27;40.91
76156;BME280;64906;51.290;7.348;2023-12-07T08:29:34;98974.59;;;18.30;40.77
76156;BME280;64906;51.290;7.348;2023-12-07T08:32:00;98980.03;;;18.30;40.91
76156;BME280;64906;51.290;7.348;2023-12-07T08:34:25;98976.25;;;18.31;40.76
76156;BME280;64906;51.290;7.348;2023-12-07T08:36:50;98981.44;;;18.32;40.86
76156;BME280;64906;51.290;7.348;2023-12-07T08:39:16;98974.06;;;18.33;40.65
76156;BME280;64906;51.290;7.348;2023-12-07T08:41:41;98978.41;;;18.34;41.05
76156;BME280;64906;51.290;7.348;2023-12-07T08:44:07;98983.88;;;18.34;41.00
76156;BME280;64906;51.290;7.348;2023-12-07T08:46:32;98986.06;;;18.37;40.92
76156;BME280;64906;51.290;7.348;2023-12-07T08:48:59;98993.47;;;18.36;40.71
76156;BME280;64906;51.290;7.348;2023-12-07T08:51:24;98991.25;;;18.38;40.71
76156;BME280;64906;51.290;7.348;2023-12-07T08:53:50;98987.72;;;18.38;40.93
76156;BME280;64906;51.290;7.348;2023-12-07T08:56:17;98989.09;;;18.40;40.94
76156;BME280;64906;51.290;7.348;2023-12-07T08:58:42;98991.84;;;18.40;40.62
76156;BME280;64906;51.290;7.348;2023-12-07T09:01:07;98991.56;;;18.42;40.67
76156;BME280;64906;51.290;7.348;2023-12-07T09:03:33;98995.09;;;18.37;41.09
76156;BME280;64906;51.290;7.348;2023-12-07T09:05:59;98993.47;;;18.36;40.68
76156;BME280;64906;51.290;7.348;2023-12-07T09:08:25;99006.06;;;18.42;40.69
76156;BME280;64906;51.290;7.348;2023-12-07T09:10:51;99005.50;;;18.45;40.72
76156;BME280;64906;51.290;7.348;2023-12-07T09:13:17;99005.22;;;18.47;41.03
76156;BME280;64906;51.290;7.348;2023-12-07T09:15:42;99014.25;;;18.47;41.00
76156;BME280;64906;51.290;7.348;2023-12-07T09:18:08;99007.97;;;18.47;40.86
76156;BME280;64906;51.290;7.348;2023-12-07T09:20:33;99007.69;;;18.43;40.78
76156;BME280;64906;51.290;7.348;2023-12-07T09:22:59;99005.50;;;18.45;40.84
76156;BME280;64906;51.290;7.348;2023-12-07T09:25:24;99004.69;;;18.50;40.82
76156;BME280;64906;51.290;7.348;2023-12-07T09:27:53;99004.13;;;18.53;40.65
76156;BME280;64906;51.290;7.348;2023-12-07T09:30:18;99005.78;;;18.54;40.88
76156;BME280;64906;51.290;7.348;2023-12-07T09:32:43;99008.53;;;18.54;40.83
76156;BME280;64906;51.290;7.348;2023-12-07T09:35:10;99010.16;;;18.60;40.76
76156;BME280;64906;51.290;7.348;2023-12-07T09:37:46;99012.59;;;18.61;40.79
76156;BME280;64906;51.290;7.348;2023-12-07T09:40:22;99004.13;;;18.63;40.54
76156;BME280;64906;51.290;7.348;2023-12-07T09:42:48;98994.84;;;18.64;40.57
76156;BME280;64906;51.290;7.348;2023-12-07T09:45:15;98988.28;;;18.65;40.70
76156;BME280;64906;51.290;7.348;2023-12-07T09:47:42;98998.38;;;18.64;40.79
76156;BME280;64906;51.290;7.348;2023-12-07T09:50:08;98998.38;;;18.64;40.59
76156;BME280;64906;51.290;7.348;2023-12-07T09:52:35;98994.56;;;18.65;40.64
76156;BME280;64906;51.290;7.348;2023-12-07T09:55:03;98995.91;;;18.68;40.70
76156;BME280;64906;51.290;7.348;2023-12-07T09:57:29;99005.22;;;18.67;40.56
76156;BME280;64906;51.290;7.348;2023-12-07T09:59:55;99001.66;;;18.71;40.48
76156;BME280;64906;51.290;7.348;2023-12-07T10:02:21;98997.03;;;18.72;40.27
76156;BME280;64906;51.290;7.348;2023-12-07T10:04:46;98988.81;;;18.72;40.52
76156;BME280;64906;51.290;7.348;2023-12-07T10:07:13;98983.91;;;18.74;40.13
76156;BME280;64906;51.290;7.348;2023-12-07T10:09:41;98971.03;;;18.74;40.14
76156;BME280;64906;51.290;7.348;2023-12-07T10:12:07;98974.84;;;18.73;40.32
76156;BME280;64906;51.290;7.348;2023-12-07T10:14:33;98970.22;;;18.74;40.15
76156;BME280;64906;51.290;7.348;2023-12-07T10:16:59;98969.66;;;18.77;40.10
76156;BME280;64906;51.290;7.348;2023-12-07T10:19:25;98969.38;;;18.79;40.16
76156;BME280;64906;51.290;7.348;2023-12-07T10:21:53;98963.91;;;18.79;39.92
76156;BME280;64906;51.290;7.348;2023-12-07T10:24:20;98959.78;;;18.81;40.01
76156;BME280;64906;51.290;7.348;2023-12-07T10:26:48;98953.78;;;18.79;39.82
76156;BME280;64906;51.290;7.348;2023-12-07T10:29:13;98954.31;;;18.81;40.16
76156;BME280;64906;51.290;7.348;2023-12-07T10:31:39;98948.31;;;18.79;40.07
76156;BME280;64906;51.290;7.348;2023-12-07T10:34:05;98943.38;;;18.81;39.72
76156;BME280;64906;51.290;7.348;2023-12-07T10:36:30;98952.97;;;18.84;40.11
76156;BME280;64906;51.290;7.348;2023-12-07T10:38:56;98939.28;;;18.84;39.95
76156;BME280;64906;51.290;7.348;2023-12-07T10:41:25;98942.81;;;18.84;39.64
76156;BME280;64906;51.290;7.348;2023-12-07T10:43:59;98941.75;;;18.85;39.87
76156;BME280;64906;51.290;7.348;2023-12-07T10:46:25;98939.81;;;18.86;39.82
76156;BME280;64906;51.290;7.348;2023-12-07T10:48:55;98937.06;;;18.86;39.57
76156;BME280;64906;51.290;7.348;2023-12-07T10:51:29;98927.78;;;18.82;39.84
76156;BME280;64906;51.290;7.348;2023-12-07T10:53:56;98921.22;;;18.83;39.83
76156;BME280;64906;51.290;7.348;2023-12-07T10:56:47;98913.28;;;18.81;39.80
76156;BME280;64906;51.290;7.348;2023-12-07T10:59:13;98916.84;;;18.82;39.37
76156;BME280;64906;51.290;7.348;2023-12-07T11:01:40;98904.81;;;18.83;39.60
76156;BME280;64906;51.290;7.348;2023-12-07T11:04:06;98901.50;;;18.86;39.57
76156;BME280;64906;51.290;7.348;2023-12-07T11:06:33;98898.25;;;18.89;39.31
76156;BME280;64906;51.290;7.348;2023-12-07T11:09:02;98904.50;;;18.89;39.56
76156;BME280;64906;51.290;7.348;2023-12-07T11:11:41;98896.03;;;18.91;39.60
76156;BME280;64906;51.290;7.348;2023-12-07T11:14:09;98888.66;;;18.91;39.53
76156;BME280;64906;51.290;7.348;2023-12-07T11:16:45;98885.63;;;18.93;39.59
76156;BME280;64906;51.290;7.348;2023-12-07T11:19:43;98881.81;;;18.94;39.33
76156;BME280;64906;51.290;7.348;2023-12-07T11:22:11;98870.59;;;18.95;39.53
76156;BME280;64906;51.290;7.348;2023-12-07T11:24:37;98858.00;;;18.94;39.43
76156;BME280;64906;51.290;7.348;2023-12-07T11:27:03;98853.31;;;19.00;39.42
76156;BME280;64906;51.290;7.348;2023-12-07T11:29:29;98853.31;;;19.00;39.44
76156;BME280;64906;51.290;7.348;2023-12-07T11:32:01;98853.31;;;19.00;39.87
76156;BME280;64906;51.290;7.348;2023-12-07T11:34:39;98848.09;;;19.03;39.19
76156;BME280;64906;51.290;7.348;2023-12-07T11:37:05;98840.19;;;19.02;39.46
76156;BME280;64906;51.290;7.348;2023-12-07T11:39:36;98839.91;;;19.03;39.36
76156;BME280;64906;51.290;7.348;2023-12-07T11:42:06;98841.53;;;19.04;39.41
76156;BME280;64906;51.290;7.348;2023-12-07T11:44:33;98834.44;;;19.03;39.08
76156;BME280;64906;51.290;7.348;2023-12-07T11:46:59;98831.69;;;19.03;39.15
76156;BME280;64906;51.290;7.348;2023-12-07T11:49:26;98829.25;;;19.02;39.06
76156;BME280;64906;51.290;7.348;2023-12-07T11:51:51;98821.84;;;19.02;39.24
76156;BME280;64906;51.290;7.348;2023-12-07T11:54:17;98815.56;;;19.02;39.21
76156;BME280;64906;51.290;7.348;2023-12-07T11:56:42;98817.19;;;19.03;39.34
76156;BME280;64906;51.290;7.348;2023-12-07T11:59:08;98808.16;;;19.02;38.95
76156;BME280;64906;51.290;7.348;2023-12-07T12:01:33;98803.50;;;19.03;38.97
76156;BME280;64906;51.290;7.348;2023-12-07T12:03:59;98802.69;;;19.02;39.06
76156;BME280;64906;51.290;7.348;2023-12-07T12:06:24;98804.63;;;19.02;38.92
76156;BME280;64906;51.290;7.348;2023-12-07T12:08:51;98802.69;;;19.02;39.04
76156;BME280;64906;51.290;7.348;2023-12-07T12:11:17;98799.16;;;19.02;38.96
76156;BME280;64906;51.290;7.348;2023-12-07T12:14:00;98793.69;;;19.02;39.23
76156;BME280;64906;51.290;7.348;2023-12-07T12:16:26;98784.66;;;19.01;39.08
76156;BME280;64906;51.290;7.348;2023-12-07T12:18:52;98785.47;;;19.02;38.84
76156;BME280;64906;51.290;7.348;2023-12-07T12:21:17;98793.69;;;19.02;38.93
76156;BME280;64906;51.290;7.348;2023-12-07T12:23:42;98791.75;;;19.02;39.07
76156;BME280;64906;51.290;7.348;2023-12-07T12:26:09;98784.34;;;19.03;39.08
76156;BME280;64906;51.290;7.348;2023-12-07T12:28:36;98781.88;;;19.06;39.05
76156;BME280;64906;51.290;7.348;2023-12-07T12:31:07;98772.00;;;19.05;39.21
76156;BME280;64906;51.290;7.348;2023-12-07T12:33:32;98774.22;;;19.08;39.11
76156;BME280;64906;51.290;7.348;2023-12-07T12:36:04;98779.16;;;19.06;38.76
76156;BME280;64906;51.290;7.348;2023-12-07T12:38:30;98776.94;;;19.08;38.81
76156;BME280;64906;51.290;7.348;2023-12-07T12:40:56;98774.50;;;19.07;38.93
76156;BME280;64906;51.290;7.348;2023-12-07T12:43:21;98768.47;;;19.05;39.02
76156;BME280;64906;51.290;7.348;2023-12-07T12:45:50;98768.19;;;19.06;39.10
76156;BME280;64906;51.290;7.348;2023-12-07T12:48:15;98768.19;;;19.06;38.65
76156;BME280;64906;51.290;7.348;2023-12-07T12:50:41;98759.44;;;19.04;39.08
76156;BME280;64906;51.290;7.348;2023-12-07T12:53:08;98753.16;;;19.04;38.94
76156;BME280;64906;51.290;7.348;2023-12-07T12:55:36;98749.03;;;19.06;38.96